createdAt,value
2023-05-20T00:00:45.483Z,2.30
2023-05-20T00:03:16.956Z,2.30
2023-05-20T00:05:47.056Z,2.50
2023-05-20T00:08:21.729Z,2.53
2023-05-20T00:10:54.787Z,2.43
2023-05-20T00:13:25.971Z,2.10
2023-05-20T00:15:55.553Z,2.33
2023-05-20T00:18:26.272Z,2.40
2023-05-20T00:20:56.351Z,2.30
2023-05-20T00:23:25.066Z,2.60
2023-05-20T00:25:59.811Z,2.60
2023-05-20T00:28:31.738Z,2.50
2023-05-20T00:31:02.346Z,2.43
2023-05-20T00:33:31.962Z,2.70
2023-05-20T00:36:01.818Z,2.70
2023-05-20T00:38:38.316Z,2.30
2023-05-20T00:41:14.028Z,2.60
2023-05-20T00:43:42.949Z,2.63
2023-05-20T00:46:12.663Z,2.60
2023-05-20T00:48:45.777Z,2.30
2023-05-20T00:51:15.615Z,2.40
2023-05-20T00:53:46.635Z,2.57
2023-05-20T00:56:19.142Z,2.80
2023-05-20T00:58:48.660Z,2.70
2023-05-20T01:01:20.590Z,2.90
2023-05-20T01:03:50.549Z,2.57
2023-05-20T01:06:19.740Z,2.50
2023-05-20T01:08:49.179Z,2.90
2023-05-20T01:11:31.624Z,2.83
2023-05-20T01:14:04.937Z,2.80
2023-05-20T01:16:37.070Z,3.17
2023-05-20T01:19:22.559Z,2.60
2023-05-20T01:21:54.735Z,2.77
2023-05-20T01:24:27.929Z,2.60
2023-05-20T01:27:00.453Z,2.63
2023-05-20T01:29:32.818Z,2.80
2023-05-20T01:32:05.186Z,2.80
2023-05-20T01:34:35.013Z,3.00
2023-05-20T01:37:06.340Z,3.00
2023-05-20T01:39:41.683Z,2.53
2023-05-20T01:42:11.669Z,2.70
2023-05-20T01:44:41.737Z,2.80
2023-05-20T01:47:12.942Z,3.00
2023-05-20T01:49:41.480Z,2.90
2023-05-20T01:52:10.269Z,3.33
2023-05-20T01:54:40.580Z,2.57
2023-05-20T01:57:08.831Z,2.70
2023-05-20T01:59:37.434Z,3.10
2023-05-20T02:02:06.646Z,2.60
2023-05-20T02:04:35.491Z,2.70
2023-05-20T02:07:04.446Z,2.67
2023-05-20T02:09:32.935Z,2.67
2023-05-20T02:12:02.241Z,2.77
2023-05-20T02:14:30.891Z,2.80
2023-05-20T02:16:59.702Z,2.80
2023-05-20T02:19:33.671Z,2.70
2023-05-20T02:22:01.565Z,2.97
2023-05-20T02:24:29.904Z,2.97
2023-05-20T02:26:59.287Z,2.87
2023-05-20T02:31:51.111Z,3.17
2023-05-20T02:34:22.900Z,3.00
2023-05-20T02:36:51.818Z,3.40
2023-05-20T02:39:19.657Z,3.20
2023-05-20T02:41:48.005Z,3.50
2023-05-20T02:44:17.174Z,3.50
2023-05-20T02:46:45.730Z,3.00
2023-05-20T02:49:17.687Z,3.43
2023-05-20T02:51:45.876Z,3.57
2023-05-20T02:54:13.707Z,3.50
2023-05-20T02:56:41.534Z,3.40
2023-05-20T02:59:09.471Z,3.40
2023-05-20T03:01:37.832Z,3.53
2023-05-20T03:04:06.518Z,3.70
2023-05-20T03:06:36.375Z,3.40
2023-05-20T03:09:04.345Z,3.23
2023-05-20T03:11:32.416Z,3.20
2023-05-20T03:14:01.778Z,3.30
2023-05-20T03:16:33.699Z,3.40
2023-05-20T03:19:02.107Z,3.20
2023-05-20T03:21:31.405Z,3.43
2023-05-20T03:24:00.780Z,3.70
2023-05-20T03:26:30.156Z,3.50
2023-05-20T03:28:58.213Z,3.33
2023-05-20T03:31:28.901Z,3.80
2023-05-20T03:33:58.469Z,3.70
2023-05-20T03:36:26.559Z,3.60
2023-05-20T03:38:54.589Z,3.63
2023-05-20T03:41:26.197Z,3.80
2023-05-20T03:43:55.006Z,4.10
2023-05-20T03:46:23.216Z,3.73
2023-05-20T03:48:51.883Z,3.70
2023-05-20T03:51:19.832Z,3.20
2023-05-20T03:53:48.029Z,3.77
2023-05-20T03:56:16.979Z,3.73
2023-05-20T03:58:48.576Z,3.37
2023-05-20T04:01:18.337Z,3.90
2023-05-20T04:03:46.732Z,4.00
2023-05-20T04:06:15.587Z,3.83
2023-05-20T04:08:44.947Z,3.53
2023-05-20T04:11:17.104Z,3.60
2023-05-20T04:13:46.549Z,4.03
2023-05-20T04:16:15.070Z,3.63
2023-05-20T04:18:46.101Z,3.93
2023-05-20T04:21:15.360Z,3.40
2023-05-20T04:23:46.498Z,3.83
2023-05-20T04:26:16.827Z,3.77
2023-05-20T04:28:49.163Z,3.60
2023-05-20T04:31:19.564Z,3.77
2023-05-20T04:33:51.701Z,4.37
2023-05-20T04:36:21.692Z,4.00
2023-05-20T04:38:50.440Z,4.03
2023-05-20T04:41:19.704Z,3.70
2023-05-20T04:43:50.540Z,4.30
2023-05-20T04:46:21.185Z,4.30
2023-05-20T04:48:49.422Z,4.43
2023-05-20T04:51:18.052Z,4.30
2023-05-20T04:53:46.275Z,3.80
2023-05-20T04:56:15.806Z,3.97
2023-05-20T04:58:46.330Z,4.37
2023-05-20T05:01:16.016Z,4.50
2023-05-20T05:03:44.122Z,4.30
2023-05-20T05:06:13.126Z,4.30
2023-05-20T05:08:41.642Z,3.97
2023-05-20T05:11:13.406Z,4.00
2023-05-20T05:13:47.181Z,4.30
2023-05-20T05:16:17.735Z,4.27
2023-05-20T05:18:47.483Z,4.10
2023-05-20T05:21:16.367Z,4.23
2023-05-20T05:23:44.375Z,4.67
2023-05-20T05:26:12.713Z,4.53
2023-05-20T05:28:43.552Z,4.37
2023-05-20T05:31:12.790Z,4.70
2023-05-20T05:33:42.021Z,5.20
2023-05-20T05:36:10.225Z,4.07
2023-05-20T05:38:39.635Z,4.60
2023-05-20T05:41:07.589Z,4.23
2023-05-20T05:43:37.586Z,4.40
2023-05-20T05:46:10.741Z,4.63
2023-05-20T05:48:41.890Z,4.30
2023-05-20T05:51:14.243Z,4.80
2023-05-20T05:53:43.632Z,4.50
2023-05-20T05:56:12.051Z,4.70
2023-05-20T05:58:40.726Z,4.60
2023-05-20T06:01:11.569Z,4.97
2023-05-20T06:03:40.154Z,4.83
2023-05-20T06:06:13.409Z,4.87
2023-05-20T06:08:42.456Z,5.00
2023-05-20T06:11:10.941Z,4.97
2023-05-20T06:13:42.937Z,5.13
2023-05-20T06:16:12.123Z,5.63
2023-05-20T06:18:43.348Z,4.60
2023-05-20T06:21:13.480Z,5.13
2023-05-20T06:23:41.320Z,5.40
2023-05-20T06:26:09.825Z,5.07
2023-05-20T06:28:38.625Z,5.20
2023-05-20T06:31:10.595Z,5.50
2023-05-20T06:33:41.824Z,5.70
2023-05-20T06:36:10.142Z,5.33
2023-05-20T06:38:41.648Z,5.57
2023-05-20T06:41:10.961Z,5.27
2023-05-20T06:44:30.444Z,5.43
2023-05-20T06:47:27.075Z,5.47
2023-05-20T06:49:57.575Z,5.70
2023-05-20T06:52:27.401Z,5.60
2023-05-20T06:54:59.471Z,5.67
2023-05-20T06:57:29.263Z,5.93
2023-05-20T07:00:00.787Z,5.97
2023-05-20T07:02:30.250Z,5.67
2023-05-20T07:04:59.607Z,6.37
2023-05-20T07:07:37.744Z,5.63
2023-05-20T07:10:10.323Z,6.47
2023-05-20T07:13:01.785Z,6.00
2023-05-20T07:15:38.976Z,5.90
2023-05-20T07:18:12.999Z,6.00
2023-05-20T07:20:47.458Z,5.90
2023-05-20T07:23:18.772Z,6.20
2023-05-20T07:26:13.896Z,6.03
2023-05-20T07:28:46.889Z,5.80
2023-05-20T07:31:16.590Z,5.93
2023-05-20T07:34:11.427Z,6.10
2023-05-20T07:36:40.391Z,5.90
2023-05-20T07:39:13.382Z,6.20
2023-05-20T07:41:49.857Z,6.07
2023-05-20T07:44:20.232Z,6.60
2023-05-20T07:46:49.661Z,6.27
2023-05-20T07:49:25.613Z,6.20
2023-05-20T07:51:54.145Z,6.67
2023-05-20T07:54:34.613Z,6.73
2023-05-20T07:57:07.767Z,7.00
2023-05-20T07:59:39.041Z,6.37
2023-05-20T08:02:11.259Z,6.00
2023-05-20T08:04:40.128Z,6.63
2023-05-20T08:07:11.543Z,6.37
2023-05-20T08:09:42.538Z,6.30
2023-05-20T08:12:16.756Z,6.50
2023-05-20T08:14:46.679Z,7.00
2023-05-20T08:17:19.929Z,6.83
2023-05-20T08:19:51.243Z,6.67
2023-05-20T08:22:24.423Z,5.93
2023-05-20T08:27:43.810Z,7.63
2023-05-20T08:30:15.362Z,7.13
2023-05-20T08:32:58.721Z,7.27
2023-05-20T08:35:42.078Z,7.33
2023-05-20T08:38:22.566Z,7.37
2023-05-20T08:41:13.921Z,7.17
2023-05-20T08:43:55.601Z,7.37
2023-05-20T08:46:29.457Z,7.93
2023-05-20T08:49:04.434Z,7.10
2023-05-20T08:51:35.692Z,6.97
2023-05-20T08:54:08.467Z,7.50
2023-05-20T08:56:42.180Z,7.00
2023-05-20T08:59:19.284Z,7.60
2023-05-20T09:01:50.973Z,7.47
2023-05-20T09:04:30.920Z,8.07
2023-05-20T09:07:17.492Z,7.00
2023-05-20T09:09:51.364Z,6.93
2023-05-20T09:12:26.242Z,6.73
2023-05-20T09:14:59.220Z,7.27
2023-05-20T09:17:32.164Z,7.90
2023-05-20T09:20:04.674Z,7.30
2023-05-20T09:22:43.407Z,7.23
2023-05-20T09:25:33.994Z,7.40
2023-05-20T09:28:07.136Z,7.00
2023-05-20T09:31:06.159Z,7.50
2023-05-20T09:33:58.016Z,6.97
2023-05-20T09:36:57.665Z,7.03
2023-05-20T09:39:37.034Z,7.63
2023-05-20T09:42:18.724Z,7.10
2023-05-20T09:44:50.883Z,6.97
2023-05-20T09:47:22.767Z,7.77
2023-05-20T09:50:03.938Z,7.63
2023-05-20T09:52:32.481Z,7.60
2023-05-20T09:55:06.313Z,7.50
2023-05-20T09:57:37.515Z,7.77
2023-05-20T10:00:11.232Z,7.73
2023-05-20T10:02:45.706Z,7.67
2023-05-20T10:05:20.509Z,7.53
2023-05-20T10:08:12.879Z,7.57
2023-05-20T10:10:52.015Z,8.30
2023-05-20T10:13:41.966Z,8.10
2023-05-20T10:16:30.636Z,7.97
2023-05-20T10:19:12.045Z,8.43
2023-05-20T10:21:43.575Z,7.57
2023-05-20T10:24:13.734Z,7.87
2023-05-20T10:26:46.135Z,7.60
2023-05-20T10:29:19.466Z,7.50
2023-05-20T10:31:51.148Z,7.60
2023-05-20T10:34:26.024Z,7.73
2023-05-20T10:37:00.935Z,7.57
2023-05-20T10:39:32.731Z,7.60
2023-05-20T10:42:16.324Z,7.17
2023-05-20T10:45:13.211Z,7.80
2023-05-20T10:47:54.750Z,7.20
2023-05-20T10:50:31.587Z,7.70
2023-05-20T10:53:34.396Z,8.77
2023-05-20T10:56:04.070Z,8.33
2023-05-20T10:58:41.923Z,7.77
2023-05-20T11:01:12.629Z,7.70
2023-05-20T11:03:45.085Z,7.57
2023-05-20T11:06:18.228Z,7.67
2023-05-20T11:08:47.858Z,6.90
2023-05-20T11:11:20.574Z,6.63
2023-05-20T11:13:52.336Z,7.30
2023-05-20T11:16:23.582Z,7.20
2023-05-20T11:18:53.678Z,7.43
2023-05-20T11:21:28.604Z,7.33
2023-05-20T11:23:59.734Z,7.03
2023-05-20T11:26:28.307Z,6.60
2023-05-20T11:29:01.439Z,7.50
2023-05-20T11:31:30.079Z,7.20
2023-05-20T11:33:58.172Z,6.90
2023-05-20T11:36:28.892Z,7.10
2023-05-20T11:38:58.973Z,6.53
2023-05-20T11:41:28.638Z,7.20
2023-05-20T11:43:59.641Z,7.60
2023-05-20T11:46:29.434Z,7.60
2023-05-20T11:49:12.416Z,6.73
2023-05-20T11:51:46.236Z,7.50
2023-05-20T11:54:15.581Z,8.00
2023-05-20T11:56:46.252Z,7.70
2023-05-20T11:59:21.027Z,9.37
2023-05-20T12:01:49.628Z,7.87
2023-05-20T12:04:18.512Z,7.40
2023-05-20T12:06:48.366Z,7.80
2023-05-20T12:09:18.620Z,7.90
2023-05-20T12:11:48.171Z,7.27
2023-05-20T12:14:16.593Z,7.17
2023-05-20T12:16:46.724Z,6.83
2023-05-20T12:19:16.647Z,7.33
2023-05-20T12:21:47.264Z,7.97
2023-05-20T12:24:17.796Z,7.70
2023-05-20T12:26:46.445Z,7.30
2023-05-20T12:29:14.558Z,8.07
2023-05-20T12:31:43.535Z,7.40
2023-05-20T12:34:14.373Z,8.03
2023-05-20T12:36:51.545Z,8.37
2023-05-20T12:39:23.566Z,7.67
2023-05-20T12:41:52.175Z,8.20
2023-05-20T12:44:25.517Z,8.30
2023-05-20T12:46:53.574Z,8.37
2023-05-20T12:49:21.934Z,7.87
2023-05-20T12:51:50.238Z,7.47
2023-05-20T12:54:28.593Z,8.70
2023-05-20T12:56:59.489Z,7.97
2023-05-20T12:59:29.340Z,8.07
2023-05-20T13:01:57.709Z,7.90
2023-05-20T13:04:29.900Z,7.70
2023-05-20T13:06:59.212Z,8.30
2023-05-20T13:09:28.989Z,7.83
2023-05-20T13:11:58.690Z,7.63
2023-05-20T13:14:33.188Z,7.83
2023-05-20T13:17:01.264Z,7.97
2023-05-20T13:19:30.811Z,7.70
2023-05-20T13:22:00.038Z,8.17
2023-05-20T13:24:31.003Z,8.23
2023-05-20T13:27:01.382Z,8.90
2023-05-20T13:29:32.518Z,8.43
2023-05-20T13:32:03.136Z,8.53
2023-05-20T13:34:37.841Z,8.57
2023-05-20T13:37:07.227Z,8.77
2023-05-20T13:39:37.555Z,8.07
2023-05-20T13:42:10.167Z,8.67
2023-05-20T13:44:42.015Z,8.70
2023-05-20T13:47:10.492Z,7.73
2023-05-20T13:49:40.551Z,8.77
2023-05-20T13:52:12.849Z,7.93
2023-05-20T13:54:46.683Z,8.23
2023-05-20T13:57:15.285Z,7.63
2023-05-20T13:59:46.949Z,7.97
2023-05-20T14:02:15.810Z,7.73
2023-05-20T14:04:45.573Z,7.50
2023-05-20T14:07:14.734Z,8.07
2023-05-20T14:09:44.541Z,7.45
2023-05-20T14:12:14.374Z,8.20
2023-05-20T14:14:44.105Z,8.00
2023-05-20T14:17:12.745Z,7.55
2023-05-20T14:19:41.963Z,7.57
2023-05-20T14:22:14.952Z,8.02
2023-05-20T14:24:58.075Z,8.07
2023-05-20T14:27:25.996Z,8.20
2023-05-20T14:29:56.759Z,7.67
2023-05-20T14:32:25.152Z,7.85
2023-05-20T14:34:56.970Z,8.48
2023-05-20T14:37:27.220Z,8.25
2023-05-20T14:39:57.326Z,7.50
2023-05-20T14:42:26.526Z,7.85
2023-05-20T14:44:54.879Z,7.82
2023-05-20T14:47:23.988Z,7.55
2023-05-20T14:49:52.768Z,7.32
2023-05-20T14:52:21.259Z,7.78
2023-05-20T14:54:51.078Z,8.02
2023-05-20T14:57:21.716Z,7.28
2023-05-20T14:59:54.234Z,7.78
2023-05-20T15:03:01.475Z,8.07
2023-05-20T15:05:29.602Z,8.30
2023-05-20T15:08:14.118Z,7.73
2023-05-20T15:10:42.762Z,7.87
2023-05-20T15:13:18.769Z,7.65
2023-05-20T15:15:49.971Z,7.38
2023-05-20T15:18:19.158Z,7.32
2023-05-20T15:20:47.893Z,7.55
2023-05-20T15:23:24.091Z,7.90
2023-05-20T15:25:55.685Z,7.70
2023-05-20T15:28:27.244Z,7.10
2023-05-20T15:31:07.334Z,7.90
2023-05-20T15:33:47.940Z,7.60
2023-05-20T15:36:19.228Z,7.15
2023-05-20T15:38:47.614Z,7.15
2023-05-20T15:41:23.881Z,7.80
2023-05-20T15:44:06.308Z,7.53
2023-05-20T15:46:37.857Z,7.35
2023-05-20T15:49:07.646Z,7.30
2023-05-20T15:51:38.331Z,7.43
2023-05-20T15:54:14.413Z,7.07
2023-05-20T15:56:49.185Z,7.10
2023-05-20T15:59:37.566Z,7.35
2023-05-20T16:02:10.031Z,7.82
2023-05-20T16:04:41.989Z,7.55
2023-05-20T16:07:24.693Z,7.70
2023-05-20T16:09:54.077Z,8.30
2023-05-20T16:12:26.101Z,8.32
2023-05-20T16:15:01.790Z,7.63
2023-05-20T16:17:32.270Z,7.80
2023-05-20T16:20:12.974Z,8.40
2023-05-20T16:22:55.881Z,8.00
2023-05-20T16:25:26.389Z,8.37
2023-05-20T16:27:59.559Z,8.17
2023-05-20T16:30:31.664Z,8.83
2023-05-20T16:33:00.337Z,8.23
2023-05-20T16:35:31.114Z,8.90
2023-05-20T16:38:03.058Z,8.37
2023-05-20T16:40:34.427Z,8.77
2023-05-20T16:43:04.389Z,8.27
2023-05-20T16:45:35.608Z,8.93
2023-05-20T16:48:05.579Z,8.80
2023-05-20T16:50:40.587Z,9.47
2023-05-20T16:53:11.037Z,9.17
2023-05-20T16:55:44.131Z,8.90
2023-05-20T16:58:40.146Z,9.57
2023-05-20T17:01:11.112Z,9.27
2023-05-20T17:03:44.611Z,9.33
2023-05-20T17:06:13.406Z,9.00
2023-05-20T17:08:43.585Z,9.17
2023-05-20T17:11:14.635Z,10.17
2023-05-20T17:13:45.718Z,10.13
2023-05-20T17:16:16.972Z,9.47
2023-05-20T17:18:46.430Z,10.60
2023-05-20T17:21:15.824Z,10.20
2023-05-20T17:26:37.262Z,10.10
2023-05-20T17:29:05.805Z,10.07
2023-05-20T17:31:36.130Z,10.47
2023-05-20T17:34:11.352Z,10.40
2023-05-20T17:36:43.372Z,10.80
2023-05-20T17:39:19.755Z,10.17
2023-05-20T17:41:54.833Z,10.90
2023-05-20T17:44:25.141Z,11.07
2023-05-20T17:47:03.224Z,11.97
2023-05-20T17:49:32.874Z,11.00
2023-05-20T17:52:04.612Z,11.03
2023-05-20T17:54:37.318Z,11.10
2023-05-20T17:57:08.901Z,11.43
2023-05-20T17:59:45.712Z,11.13
2023-05-20T18:02:17.187Z,11.33
2023-05-20T18:04:47.821Z,11.63
2023-05-20T18:07:19.253Z,11.83
2023-05-20T18:09:48.269Z,12.00
2023-05-20T18:12:46.384Z,12.10
2023-05-20T18:15:17.934Z,11.77
2023-05-20T18:17:58.976Z,12.37
2023-05-20T18:20:28.993Z,12.53
2023-05-20T18:22:59.503Z,11.80
2023-05-20T18:25:27.776Z,13.23
2023-05-20T18:27:59.330Z,12.50
2023-05-20T18:30:30.707Z,12.60
2023-05-20T18:33:08.588Z,12.83
2023-05-20T18:35:39.448Z,12.77
2023-05-20T18:38:11.004Z,13.17
2023-05-20T18:40:39.351Z,12.80
2023-05-20T18:43:10.895Z,12.93
2023-05-20T18:45:40.807Z,13.63
2023-05-20T18:48:26.552Z,13.50
2023-05-20T18:50:58.520Z,13.30
2023-05-20T18:53:31.627Z,13.57
2023-05-20T18:56:13.568Z,13.30
2023-05-20T18:59:10.956Z,14.03
2023-05-20T19:01:40.484Z,14.30
2023-05-20T19:04:13.703Z,14.50
2023-05-20T19:06:46.276Z,13.87
2023-05-20T19:09:29.353Z,14.10
2023-05-20T19:12:23.012Z,14.37
2023-05-20T19:15:04.144Z,14.23
2023-05-20T19:17:42.332Z,14.63
2023-05-20T19:20:22.955Z,13.37
2023-05-20T19:22:55.133Z,14.97
2023-05-20T19:25:23.856Z,15.10
2023-05-20T19:27:57.163Z,14.10
2023-05-20T19:30:37.989Z,15.13
2023-05-20T19:33:07.075Z,15.83
2023-05-20T19:35:39.307Z,14.47
2023-05-20T19:40:53.656Z,15.67
2023-05-20T19:43:26.243Z,14.97
2023-05-20T19:46:03.227Z,15.43
2023-05-20T19:48:31.953Z,15.23
2023-05-20T19:51:04.722Z,16.10
2023-05-20T19:53:32.687Z,15.40
2023-05-20T19:56:02.651Z,14.97
2023-05-20T19:58:34.168Z,15.37
2023-05-20T20:01:06.729Z,14.90
2023-05-20T20:03:38.223Z,14.73
2023-05-20T20:06:11.504Z,15.60
2023-05-20T20:08:43.915Z,15.07
2023-05-20T20:11:15.147Z,15.27
2023-05-20T20:13:46.364Z,15.23
2023-05-20T20:16:27.226Z,15.87
2023-05-20T20:18:57.374Z,15.33
2023-05-20T20:21:31.133Z,15.00
2023-05-20T20:24:00.263Z,15.30
2023-05-20T20:26:32.249Z,15.53
2023-05-20T20:29:03.842Z,14.90
2023-05-20T20:31:32.710Z,15.10
2023-05-20T20:34:01.794Z,15.13
2023-05-20T20:36:32.161Z,16.17
2023-05-20T20:39:02.825Z,15.60
2023-05-20T20:41:33.010Z,15.97
2023-05-20T20:44:03.477Z,15.50
2023-05-20T20:46:41.864Z,15.13
2023-05-20T20:49:15.519Z,15.37
2023-05-20T20:51:46.357Z,15.20
2023-05-20T20:54:15.940Z,14.40
2023-05-20T20:56:50.073Z,15.20
2023-05-20T20:59:26.226Z,16.50
2023-05-20T21:01:57.844Z,15.40
2023-05-20T21:04:30.133Z,15.20
2023-05-20T21:07:02.135Z,14.93
2023-05-20T21:09:37.390Z,15.17
2023-05-20T21:12:10.215Z,15.40
2023-05-20T21:14:39.854Z,15.63
2023-05-20T21:17:09.500Z,16.00
2023-05-20T21:19:40.857Z,15.03
2023-05-20T21:22:15.112Z,15.47
2023-05-20T21:24:45.655Z,15.87
2023-05-20T21:27:17.177Z,15.63
2023-05-20T21:29:53.724Z,15.70
2023-05-20T21:32:23.958Z,15.83
2023-05-20T21:35:02.085Z,15.17
2023-05-20T21:37:38.434Z,15.00
2023-05-20T21:40:10.559Z,15.30
2023-05-20T21:42:42.086Z,14.77
2023-05-20T21:45:13.820Z,14.37
2023-05-20T21:47:49.290Z,14.93
2023-05-20T21:50:20.317Z,15.30
2023-05-20T21:52:57.922Z,14.33
2023-05-20T21:55:26.221Z,15.17
2023-05-20T21:58:06.692Z,14.30
2023-05-20T22:00:36.749Z,14.47
2023-05-20T22:03:09.888Z,15.37
2023-05-20T22:05:40.102Z,14.87
2023-05-20T22:08:13.992Z,15.20
2023-05-20T22:10:53.392Z,14.60
2023-05-20T22:13:26.574Z,14.77
2023-05-20T22:15:58.709Z,14.77
2023-05-20T22:18:32.902Z,14.10
2023-05-20T22:21:10.254Z,14.43
2023-05-20T22:23:44.257Z,15.10
2023-05-20T22:26:20.025Z,14.33
2023-05-20T22:28:48.851Z,15.03
2023-05-20T22:31:27.957Z,15.07
2023-05-20T22:33:59.231Z,14.50
2023-05-20T22:36:36.318Z,15.27
2023-05-20T22:39:10.602Z,13.40
2023-05-20T22:41:41.730Z,13.77
2023-05-20T22:44:24.791Z,14.33
2023-05-20T22:46:54.012Z,14.43
2023-05-20T22:49:27.016Z,14.43
2023-05-20T22:52:00.304Z,14.60
2023-05-20T22:54:31.034Z,14.37
2023-05-20T22:57:03.203Z,14.53
2023-05-20T22:59:36.893Z,13.90
2023-05-20T23:02:09.222Z,13.63
2023-05-20T23:04:41.751Z,13.87
2023-05-20T23:07:14.703Z,13.77
2023-05-20T23:09:44.407Z,14.37
2023-05-20T23:12:13.090Z,14.60
2023-05-20T23:14:45.258Z,16.20
2023-05-20T23:17:18.294Z,18.80
2023-05-20T23:19:49.199Z,15.30
2023-05-20T23:22:23.760Z,14.20
2023-05-20T23:24:58.583Z,13.67
2023-05-20T23:27:28.777Z,14.10
2023-05-20T23:29:57.285Z,13.23
2023-05-20T23:32:32.289Z,14.87
2023-05-20T23:35:03.498Z,14.43
2023-05-20T23:37:34.747Z,13.90
2023-05-20T23:40:11.324Z,14.13
2023-05-20T23:42:44.117Z,13.20
2023-05-20T23:45:16.256Z,13.83
2023-05-20T23:47:58.693Z,14.03
2023-05-20T23:50:27.989Z,13.40
2023-05-20T23:52:59.514Z,13.60
2023-05-20T23:55:29.882Z,13.90
2023-05-20T23:58:06.929Z,13.93
